Share

Hinkle, KY (40953)

10:30 AM EDT on April 23, 2014 (GMT -0400)
liford's (KKYBARBO2) Elev 1066 ft | 36.84 °N, 83.85 °W | Change Station
Active Advisory: Special Statement

Current weather conditions updated 11 minutes ago

Clear
Clear
54.5 °F
Feels Like 54.5 °F
N
1.1
Wind Variable Wind from SE
Sunrise 6:50 AM
Sunset 8:16 PM
Moon Waning Crescent

Today is forecast to be Much Cooler than yesterday.

Pressure 30.05 in
Visibility 10.0 miles
Clouds Clear
Dew Point 33 °F
Humidity 44%
Rainfall 0.00 in
Snow Depth Not available.
UV 5 out of 16
Pollen 10.00 out of 12
Air Quality Not available.
Flu Activity Sporadic
METAR K1A6 231415Z AUTO 01008KT 10SM CLR 12/M02 A3005 RMK AO2 T01191018

More Conditions Fewer Conditions

Pressure 30.05 in
Visibility 10.0 miles
Clouds Clear
Dew Point 33 °F
Humidity 44%
Rainfall 0.00 in
Snow Depth Not available.
UV 5 out of 16
Pollen 10.00 out of 12
Air Quality Not available.
Flu Activity Sporadic
METAR K1A6 231415Z AUTO 01008KT 10SM CLR 12/M02 A3005 RMK AO2 T01191018

More Conditions Fewer Conditions

10-Day Weather Forecast

Almanac

Astronomy

Apr. 23, 2014 Rise Set
Actual Time 6:50 AM EDT 8:16 PM EDT
Civil Twilight 6:23 AM EDT 8:44 PM EDT
Nautical Twilight 5:50 AM EDT 9:16 PM EDT
Astronomical Twilight 5:16 AM EDT 9:51 PM EDT
Moon 3:12 AM EDT 2:32 PM EDT
Length of Visible Light 14h 20m
Length of Day
13h 26m
Tomorrow will be 2m 8s longer.
Waning Crescent, 36% of the Moon is Illuminated
Today
Waning Crescent
Apr 29
New
May 6
First Quarter
May 14
Full
May 21
Last Quarter

Today's Extremes

State Highs State Lows

Community

  • spring flowers
    spring flowers
  • Earth Day Spectrum Ove' Blue
    Earth Day Spectrum Ove' Blue
  • BARN B&W
    BARN B&W
  • April Sunset
    April Sunset
  • Waiting..
    Waiting..

WunderPhotos

Upload Photos

1,704,296 photos uploaded!

Nearby

Snow Depth

Station Depth Elevation
No new snow has been reported.

Coastal Water Temperatures

Place Temperature
No Stations Reporting

Earthquake Activity

City Distance Mag. Time & Date
No recent earthquake activity has been reported nearby.
Minimum magnitude displayed is 2.5.

Nearby Weather Stations

Station Location Temp. Dew Point Humidity Wind Precip. Elev Updated Type
liford's, Barbourville, KY 54.5 °F 33 °F 44% SE  at  1.1 mph - / hr 1066 ft 10:19 AM EDT Normal
Colmar, Middlesboro, KY 54.9 °F 33 °F 43% NNW  at  5.0 mph - / hr 1135 ft 10:16 AM EDT Normal
RAWS PEABODY KY, Big Creek, KY 53 °F 30 °F 41% NW  at  3 mph 0.00 in / hr 1464 ft 10:01 AM EDT MADIS
MSWO, London, KY 52.5 °F 29 °F 40% North  at  3.6 mph 0.00 in / hr 1163 ft 10:30 AM EDT Rapid Fire

Show More Stations Show Fewer Stations

What do you think?

We're not finished. Please let us know what you like, what you don't like, and what you are still missing.